Etusivu
METAR-TAF:

METAR-TAF

Lentoasemat :

Cazaux, Ranska

Leveyspiiri: 44-32N, Pituuspiiri: 001-08W, korkeus merenpinnasta: 25 m

Tämänhetkinen sää

Tämä raportti tehtiin 30 minuuttia sitten, kello 05.30 UTC
Tuuli 3 kn pohjoisesta
Lämpötila 9°C
Kosteus 87%
Ilmanpaine 1031 hPa
Näkyvyys 10 km tai enemmän
Pilvistä 3600 ft:n korkeudessa

METAR: LFBC 210530Z AUTO 01003KT 9999 OVC036 09/07 Q1031

Aika: 07:00 (06:00 UTC)

Sääennuste

Tämä raportti tehtiin 10 tuntia ja 0 minuuttia sitten, kello 20.00 UTC
Ennuste voimassa 20. päivästä klo 21 UTC - 21. päivään klo 21 UTC
Tuuli 3 kn lännestä
Näkyvyys 10 km tai enemmän
Muutamia pilviä 1800 ft:n korkeudessa
Hajonneita pilviä 3000 ft:n korkeudessa
Hajonneita pilviä 4500 ft:n korkeudessa
Todennäköisyys 30% :
Ajoittain
21. päivästä klo 03 UTC - 21. päivään klo 08 UTC
Näkyvyys: 0800 m
sumuhattaroita

TAF: LFBC 202000Z 2021/2121 27003KT 9999 FEW018 BKN030 BKN045 PROB30 TEMPO 2103/2108 0800 BCFG

Säähavainnot ja -ennusteet yli 4000 lentoasemalta (METAR- ja TAF-raportit).

Käytössä olevat sääasemat on merkitty karttaan keltaisilla ja punaisilla pisteillä.

Aseta hiiri pisteen päälle nähdäksesi sääaseman nimen.

Klikkaa sitten nähdäksesi säähavainnot ja -ennusteet.

Kartan vaihtaminen: klikkaa mustalla rastilla varustettuja vihreitä pisteitä, niin voit zoomata sisään; viivalla varustettua vihreää pistettä, niin voit zoomata ulos tai vihreitä nuolia, niin pääset viereisille kartoille.


METAR-TAF: